createdAt,value
2023-05-30T00:02:07.196Z,21.70
2023-05-30T00:04:34.102Z,15.80
2023-05-30T00:07:00.975Z,20.77
2023-05-30T00:09:27.721Z,17.52
2023-05-30T00:11:55.948Z,18.52
2023-05-30T00:14:24.243Z,12.70
2023-05-30T00:16:52.709Z,23.58
2023-05-30T00:19:20.806Z,11.70
2023-05-30T00:21:48.340Z,17.38
2023-05-30T00:24:15.118Z,14.18
2023-05-30T00:26:41.908Z,24.33
2023-05-30T00:29:08.850Z,17.98
2023-05-30T00:31:35.748Z,19.10
2023-05-30T00:34:02.544Z,14.35
2023-05-30T00:36:29.357Z,21.30
2023-05-30T00:38:56.351Z,18.15
2023-05-30T00:41:23.666Z,19.23
2023-05-30T00:43:50.539Z,12.30
2023-05-30T00:46:17.302Z,31.60
2023-05-30T00:48:44.189Z,20.60
2023-05-30T00:51:12.049Z,24.98
2023-05-30T00:53:39.576Z,15.98
2023-05-30T00:56:06.562Z,10.20
2023-05-30T00:58:33.299Z,14.57
2023-05-30T01:01:00.463Z,12.65
2023-05-30T01:03:28.931Z,13.82
2023-05-30T01:05:55.904Z,24.17
2023-05-30T01:08:22.969Z,19.67
2023-05-30T01:10:52.438Z,17.38
2023-05-30T01:13:23.648Z,22.80
2023-05-30T01:15:54.735Z,17.83
2023-05-30T01:18:35.144Z,17.52
2023-05-30T01:21:03.941Z,17.23
2023-05-30T01:23:51.541Z,14.15
2023-05-30T01:26:25.835Z,7.70
2023-05-30T01:28:53.181Z,16.85
2023-05-30T01:31:20.056Z,16.75
2023-05-30T01:33:47.092Z,19.58
2023-05-30T01:36:13.845Z,11.65
2023-05-30T01:38:40.549Z,17.70
2023-05-30T01:41:11.934Z,16.67
2023-05-30T01:43:47.838Z,20.52
2023-05-30T01:46:36.062Z,17.25
2023-05-30T01:49:30.307Z,20.27
2023-05-30T01:51:57.165Z,20.70
2023-05-30T01:54:24.148Z,21.45
2023-05-30T01:56:55.216Z,14.73
2023-05-30T01:59:21.989Z,22.90
2023-05-30T02:01:48.790Z,13.32
2023-05-30T02:04:16.009Z,21.45
2023-05-30T02:06:42.824Z,11.45
2023-05-30T02:09:09.546Z,16.65
2023-05-30T02:11:36.294Z,16.48
2023-05-30T02:14:03.012Z,17.75
2023-05-30T02:16:29.873Z,20.70
2023-05-30T02:18:56.670Z,17.33
2023-05-30T02:21:23.407Z,15.55
2023-05-30T02:23:50.827Z,20.92
2023-05-30T02:26:17.548Z,17.40
2023-05-30T02:28:44.305Z,23.00
2023-05-30T02:31:11.053Z,19.05
2023-05-30T02:33:37.742Z,14.93
2023-05-30T02:36:04.629Z,17.70
2023-05-30T02:38:31.395Z,16.45
2023-05-30T02:40:58.460Z,17.00
2023-05-30T02:43:26.781Z,18.40
2023-05-30T02:45:53.549Z,12.73
2023-05-30T02:48:21.477Z,19.10
2023-05-30T02:50:48.301Z,22.02
2023-05-30T02:53:15.121Z,25.40
2023-05-30T02:55:43.748Z,16.10
2023-05-30T02:58:12.949Z,21.08
2023-05-30T03:00:40.175Z,21.42
2023-05-30T03:03:09.501Z,22.27
2023-05-30T03:05:36.801Z,14.00
2023-05-30T03:08:11.246Z,15.82
2023-05-30T03:10:45.100Z,10.57
2023-05-30T03:13:11.913Z,17.17
2023-05-30T03:15:40.288Z,20.25
2023-05-30T03:18:07.213Z,18.63
2023-05-30T03:20:36.028Z,20.25
2023-05-30T03:23:02.845Z,11.43
2023-05-30T03:25:29.950Z,16.33
2023-05-30T03:27:56.733Z,16.60
2023-05-30T03:30:26.814Z,20.77
2023-05-30T03:32:54.563Z,20.75
2023-05-30T03:35:21.424Z,14.43
2023-05-30T03:37:48.126Z,17.48
2023-05-30T03:40:14.903Z,16.30
2023-05-30T03:42:43.883Z,11.20
2023-05-30T03:45:11.892Z,18.75
2023-05-30T03:47:38.795Z,19.30
2023-05-30T03:50:06.140Z,14.63
2023-05-30T03:52:32.878Z,22.85
2023-05-30T03:54:59.650Z,12.32
2023-05-30T03:57:26.370Z,12.38
2023-05-30T03:59:53.192Z,26.55
2023-05-30T04:02:20.011Z,21.48
2023-05-30T04:04:46.887Z,13.65
2023-05-30T04:07:14.076Z,23.83
2023-05-30T04:09:41.178Z,15.10
2023-05-30T04:12:09.107Z,20.10
2023-05-30T04:14:35.811Z,18.67
2023-05-30T04:17:02.556Z,16.80
2023-05-30T04:19:29.265Z,17.63
2023-05-30T04:21:55.975Z,15.00
2023-05-30T04:24:22.813Z,11.98
2023-05-30T04:26:50.255Z,18.35
2023-05-30T04:29:18.193Z,17.55
2023-05-30T04:31:45.265Z,15.25
2023-05-30T04:34:12.331Z,18.25
2023-05-30T04:36:39.444Z,17.98
2023-05-30T04:39:06.220Z,16.73
2023-05-30T04:41:33.595Z,17.17
2023-05-30T04:44:01.202Z,13.80
2023-05-30T04:46:29.908Z,18.80
2023-05-30T04:49:01.682Z,12.73
2023-05-30T04:51:29.309Z,20.20
2023-05-30T04:53:56.469Z,18.00
2023-05-30T04:56:23.294Z,13.77
2023-05-30T04:58:52.778Z,17.67
2023-05-30T05:01:20.064Z,15.07
2023-05-30T05:03:47.172Z,10.80
2023-05-30T05:06:14.515Z,18.50
2023-05-30T05:08:41.534Z,16.23
2023-05-30T05:11:08.476Z,19.63
2023-05-30T05:13:35.513Z,14.00
2023-05-30T05:16:02.381Z,18.40
2023-05-30T05:18:29.229Z,18.52
2023-05-30T05:20:56.683Z,12.35
2023-05-30T05:23:24.456Z,18.13
2023-05-30T05:25:51.523Z,15.38
2023-05-30T05:28:18.860Z,20.27
2023-05-30T05:30:46.507Z,14.23
2023-05-30T05:33:14.574Z,16.13
2023-05-30T05:35:42.143Z,11.15
2023-05-30T05:38:08.880Z,13.57
2023-05-30T05:40:36.037Z,16.27
2023-05-30T05:43:02.764Z,7.88
2023-05-30T05:45:29.483Z,18.33
2023-05-30T05:47:56.334Z,17.17
2023-05-30T05:50:23.174Z,12.45
2023-05-30T05:52:50.204Z,23.17
2023-05-30T05:55:16.942Z,14.02
2023-05-30T05:57:43.850Z,10.70
2023-05-30T06:00:11.236Z,7.43
2023-05-30T06:02:38.129Z,16.83
2023-05-30T06:05:05.459Z,9.40
2023-05-30T06:07:32.368Z,10.43
2023-05-30T06:09:59.098Z,13.00
2023-05-30T06:12:26.010Z,17.27
2023-05-30T06:14:52.840Z,14.57
2023-05-30T06:17:19.584Z,15.02
2023-05-30T06:19:46.415Z,20.00
2023-05-30T06:22:13.156Z,10.13
2023-05-30T06:24:39.936Z,8.50
2023-05-30T06:27:07.380Z,15.32
2023-05-30T06:29:35.266Z,12.55
2023-05-30T06:32:14.525Z,10.88
2023-05-30T06:34:42.639Z,15.07
2023-05-30T06:37:10.308Z,12.27
2023-05-30T06:39:39.202Z,12.73
2023-05-30T06:42:09.016Z,12.63
2023-05-30T06:44:36.318Z,16.35
2023-05-30T06:47:03.756Z,12.52
2023-05-30T06:49:31.457Z,12.48
2023-05-30T06:51:58.229Z,12.50
2023-05-30T06:54:25.474Z,19.88
2023-05-30T06:56:52.498Z,16.85
2023-05-30T06:59:20.053Z,19.73
2023-05-30T07:01:47.470Z,12.30
2023-05-30T07:04:14.388Z,13.43
2023-05-30T07:06:41.197Z,12.55
2023-05-30T07:09:08.338Z,14.32
2023-05-30T07:11:35.073Z,14.15
2023-05-30T07:14:01.980Z,15.73
2023-05-30T07:16:28.832Z,10.20
2023-05-30T07:19:11.121Z,13.82
2023-05-30T07:21:39.564Z,19.35
2023-05-30T07:24:06.525Z,15.10
2023-05-30T07:26:33.293Z,14.45
2023-05-30T07:29:00.174Z,13.73
2023-05-30T07:31:27.020Z,14.82
2023-05-30T07:33:53.881Z,14.18
2023-05-30T07:36:20.790Z,15.32
2023-05-30T07:38:47.669Z,14.88
2023-05-30T07:41:14.429Z,19.15
2023-05-30T07:43:41.219Z,15.45
2023-05-30T07:46:08.020Z,10.30
2023-05-30T07:48:35.193Z,12.30
2023-05-30T07:51:02.011Z,8.38
2023-05-30T07:53:28.780Z,15.00
2023-05-30T07:55:55.797Z,10.70
2023-05-30T07:58:23.787Z,11.75
2023-05-30T08:00:50.749Z,13.73
2023-05-30T08:03:17.682Z,16.30
2023-05-30T08:05:47.683Z,13.90
2023-05-30T08:08:15.886Z,12.45
2023-05-30T08:10:42.653Z,22.25
2023-05-30T08:13:09.367Z,13.68
2023-05-30T08:15:36.448Z,11.07
2023-05-30T08:18:03.672Z,11.88
2023-05-30T08:20:30.835Z,14.65
2023-05-30T08:22:57.787Z,10.30
2023-05-30T08:25:34.257Z,16.95
2023-05-30T08:28:01.176Z,10.50
2023-05-30T08:30:28.199Z,13.60
2023-05-30T08:32:55.601Z,16.85
2023-05-30T08:35:22.541Z,11.30
2023-05-30T08:37:49.221Z,15.27
2023-05-30T08:40:16.136Z,12.27
2023-05-30T08:42:51.996Z,10.48
2023-05-30T08:45:21.003Z,14.02
2023-05-30T08:47:48.074Z,16.85
2023-05-30T08:50:14.924Z,19.63
2023-05-30T08:52:42.429Z,12.50
2023-05-30T08:55:13.291Z,17.95
2023-05-30T08:57:58.953Z,12.27
2023-05-30T09:00:25.798Z,19.40
2023-05-30T09:02:56.765Z,12.18
2023-05-30T09:05:24.407Z,16.67
2023-05-30T09:07:52.110Z,13.90
2023-05-30T09:10:19.004Z,16.10
2023-05-30T09:12:45.863Z,17.52
2023-05-30T09:15:12.614Z,10.48
2023-05-30T09:17:39.388Z,12.45
2023-05-30T09:20:09.202Z,17.35
2023-05-30T09:22:36.089Z,20.10
2023-05-30T09:25:09.018Z,13.38
2023-05-30T09:27:36.707Z,16.50
2023-05-30T09:30:07.091Z,16.38
2023-05-30T09:32:38.368Z,14.93
2023-05-30T09:35:07.676Z,14.05
2023-05-30T09:37:44.781Z,14.55
2023-05-30T09:40:16.721Z,15.07
2023-05-30T09:42:47.084Z,16.55
2023-05-30T09:45:16.093Z,12.05
2023-05-30T09:47:47.162Z,12.45
2023-05-30T09:50:15.282Z,23.33
2023-05-30T09:52:42.884Z,9.00
2023-05-30T09:55:10.913Z,14.45
2023-05-30T09:57:39.007Z,15.75
2023-05-30T10:00:10.530Z,13.30
2023-05-30T10:02:38.828Z,14.48
2023-05-30T10:05:06.374Z,10.32
2023-05-30T10:07:34.051Z,14.55
2023-05-30T10:10:01.245Z,20.52
2023-05-30T10:12:27.992Z,19.83
2023-05-30T10:17:22.916Z,11.85
2023-05-30T10:20:01.453Z,18.45
2023-05-30T10:22:29.168Z,10.77
2023-05-30T10:24:56.331Z,18.33
2023-05-30T10:27:28.708Z,22.83
2023-05-30T10:30:14.445Z,11.75
2023-05-30T10:32:43.442Z,14.25
2023-05-30T10:35:12.495Z,12.65
2023-05-30T10:37:39.328Z,9.68
2023-05-30T10:40:22.577Z,9.23
2023-05-30T10:43:11.205Z,18.10
2023-05-30T10:45:44.220Z,10.27
2023-05-30T10:48:41.418Z,12.75
2023-05-30T10:51:08.220Z,15.38
2023-05-30T10:53:56.566Z,12.85
2023-05-30T10:56:42.499Z,15.77
2023-05-30T10:59:15.961Z,11.20
2023-05-30T11:01:42.895Z,12.57
2023-05-30T11:04:12.947Z,10.38
2023-05-30T11:06:43.875Z,12.60
2023-05-30T11:09:17.564Z,20.38
2023-05-30T11:11:45.975Z,9.75
2023-05-30T11:14:16.251Z,16.55
2023-05-30T11:16:57.561Z,13.25
2023-05-30T11:19:26.554Z,13.30
2023-05-30T11:22:03.966Z,15.05
2023-05-30T11:24:31.567Z,10.57
2023-05-30T11:27:00.222Z,14.60
2023-05-30T11:29:30.561Z,11.15
2023-05-30T11:31:57.685Z,12.73
2023-05-30T11:34:24.797Z,11.38
2023-05-30T11:36:51.674Z,15.88
2023-05-30T11:39:22.238Z,9.13
2023-05-30T11:41:49.524Z,16.35
2023-05-30T11:44:17.228Z,11.60
2023-05-30T11:46:44.194Z,18.80
2023-05-30T11:49:11.255Z,12.02
2023-05-30T11:51:40.901Z,9.57
2023-05-30T11:54:10.197Z,11.32
2023-05-30T11:56:36.973Z,8.32
2023-05-30T11:59:04.094Z,13.63
2023-05-30T12:01:30.943Z,15.07
2023-05-30T12:03:58.172Z,12.95
2023-05-30T12:06:25.243Z,13.38
2023-05-30T12:08:52.813Z,11.95
2023-05-30T12:11:19.653Z,13.15
2023-05-30T12:13:46.612Z,12.10
2023-05-30T12:16:13.626Z,9.45
2023-05-30T12:18:43.876Z,10.77
2023-05-30T12:21:12.449Z,10.70
2023-05-30T12:23:47.351Z,12.63
2023-05-30T12:26:21.152Z,11.60
2023-05-30T12:28:49.036Z,16.85
2023-05-30T12:31:25.825Z,14.30
2023-05-30T12:33:52.699Z,12.38
2023-05-30T12:36:29.460Z,15.13
2023-05-30T12:38:58.159Z,11.98
2023-05-30T12:41:29.600Z,9.05
2023-05-30T12:43:57.342Z,10.63
2023-05-30T12:46:26.947Z,6.53
2023-05-30T12:48:54.014Z,12.95
2023-05-30T12:51:20.883Z,19.13
2023-05-30T12:53:53.985Z,18.23
2023-05-30T12:56:21.456Z,13.50
2023-05-30T12:58:48.163Z,12.95
2023-05-30T13:01:15.272Z,16.77
2023-05-30T13:03:42.148Z,7.53
2023-05-30T13:06:09.283Z,10.10
2023-05-30T13:08:36.107Z,19.42
2023-05-30T13:11:06.284Z,19.48
2023-05-30T13:13:33.568Z,13.40
2023-05-30T13:16:00.932Z,12.60
2023-05-30T13:18:27.717Z,11.60
2023-05-30T13:20:54.709Z,10.45
2023-05-30T13:23:22.894Z,9.20
2023-05-30T13:25:49.714Z,11.10
2023-05-30T13:28:16.578Z,9.88
2023-05-30T13:30:43.439Z,10.43
2023-05-30T13:33:10.487Z,11.02
2023-05-30T13:35:37.335Z,8.80
2023-05-30T13:38:04.810Z,9.68
2023-05-30T13:40:31.738Z,11.27
2023-05-30T13:42:58.798Z,9.07
2023-05-30T13:45:25.619Z,10.52
2023-05-30T13:47:52.720Z,7.68
2023-05-30T13:50:23.336Z,7.30
2023-05-30T13:52:50.898Z,12.07
2023-05-30T13:55:17.932Z,8.90
2023-05-30T13:57:44.781Z,13.63
2023-05-30T14:00:12.728Z,8.85
2023-05-30T14:02:39.712Z,11.25
2023-05-30T14:05:06.893Z,11.63
2023-05-30T14:07:33.644Z,20.33
2023-05-30T14:10:00.573Z,9.80
2023-05-30T14:12:27.616Z,7.88
2023-05-30T14:14:54.382Z,12.82
2023-05-30T14:17:21.259Z,9.75
2023-05-30T14:19:47.972Z,16.98
2023-05-30T14:22:14.861Z,8.57
2023-05-30T14:24:42.261Z,10.63
2023-05-30T14:27:09.499Z,8.02
2023-05-30T14:29:36.954Z,10.63
2023-05-30T14:32:04.131Z,8.30
2023-05-30T14:34:31.183Z,10.73
2023-05-30T14:36:59.346Z,10.20
2023-05-30T14:39:26.286Z,8.40
2023-05-30T14:41:52.993Z,8.15
2023-05-30T14:44:19.739Z,7.40
2023-05-30T14:46:47.093Z,18.13
2023-05-30T14:49:13.935Z,12.50
2023-05-30T14:51:41.014Z,14.55
2023-05-30T14:54:08.742Z,9.25
2023-05-30T14:56:35.711Z,10.25
2023-05-30T14:59:02.504Z,10.48
2023-05-30T15:01:43.295Z,8.50
2023-05-30T15:04:11.524Z,6.47
2023-05-30T15:06:38.334Z,8.02
2023-05-30T15:09:05.746Z,6.63
2023-05-30T15:11:33.315Z,6.75
2023-05-30T15:14:02.610Z,7.45
2023-05-30T15:16:31.729Z,8.52
2023-05-30T15:18:58.543Z,8.55
2023-05-30T15:21:25.507Z,7.03
2023-05-30T15:23:52.366Z,4.60
2023-05-30T15:26:21.052Z,4.78
2023-05-30T15:28:48.874Z,7.63
2023-05-30T15:31:20.291Z,9.82
2023-05-30T15:33:47.240Z,6.10
2023-05-30T15:36:14.018Z,10.80
2023-05-30T15:38:40.946Z,5.97
2023-05-30T15:41:08.596Z,4.22
2023-05-30T15:43:35.766Z,4.45
2023-05-30T15:46:06.184Z,6.43
2023-05-30T15:48:33.356Z,5.93
2023-05-30T15:51:00.651Z,3.53
2023-05-30T15:53:28.742Z,7.90
2023-05-30T15:55:56.009Z,4.70
2023-05-30T15:58:22.870Z,5.95
2023-05-30T16:00:49.749Z,4.28
2023-05-30T16:03:16.533Z,4.78
2023-05-30T16:05:43.273Z,7.05
2023-05-30T16:08:10.152Z,3.08
2023-05-30T16:10:39.612Z,5.57
2023-05-30T16:13:06.470Z,1.88
2023-05-30T16:15:33.346Z,5.20
2023-05-30T16:18:00.135Z,2.53
2023-05-30T16:20:29.239Z,7.45
2023-05-30T16:22:58.455Z,6.63
2023-05-30T16:25:25.401Z,11.38
2023-05-30T16:27:52.232Z,3.03
2023-05-30T16:30:19.043Z,2.85
2023-05-30T16:32:45.897Z,3.85
2023-05-30T16:35:12.663Z,3.80
2023-05-30T16:37:39.563Z,5.90
2023-05-30T16:40:06.716Z,8.63
2023-05-30T16:42:34.096Z,3.75
2023-05-30T16:45:00.963Z,4.60
2023-05-30T16:47:27.868Z,2.30
2023-05-30T16:49:54.858Z,3.70
2023-05-30T16:52:21.889Z,5.28
2023-05-30T16:54:49.140Z,7.60
2023-05-30T16:57:15.965Z,6.60
2023-05-30T16:59:42.728Z,3.67
2023-05-30T17:02:09.853Z,3.40
2023-05-30T17:04:36.674Z,3.60
2023-05-30T17:07:03.735Z,3.38
2023-05-30T17:09:30.506Z,3.70
2023-05-30T17:11:58.789Z,3.17
2023-05-30T17:14:25.944Z,6.03
2023-05-30T17:16:52.922Z,3.38
2023-05-30T17:19:29.071Z,3.10
2023-05-30T17:21:56.724Z,6.53
2023-05-30T17:24:23.582Z,5.07
2023-05-30T17:26:50.383Z,4.65
2023-05-30T17:29:17.339Z,7.18
2023-05-30T17:31:44.230Z,7.60
2023-05-30T17:34:11.306Z,3.22
2023-05-30T17:36:38.088Z,6.43
2023-05-30T17:39:06.130Z,3.33
2023-05-30T17:41:32.892Z,3.30
2023-05-30T17:43:59.657Z,5.95
2023-05-30T17:46:26.470Z,7.28
2023-05-30T17:48:53.281Z,8.77
2023-05-30T17:51:20.029Z,7.90
2023-05-30T17:53:55.969Z,8.60
2023-05-30T17:56:23.663Z,7.20
2023-05-30T17:58:51.361Z,4.90
2023-05-30T18:01:18.353Z,7.00
2023-05-30T18:03:45.252Z,7.07
2023-05-30T18:06:23.138Z,6.95
2023-05-30T18:08:53.218Z,7.15
2023-05-30T18:11:20.031Z,8.10
2023-05-30T18:13:46.835Z,7.05
2023-05-30T18:16:13.654Z,5.90
2023-05-30T18:18:40.436Z,12.95
2023-05-30T18:21:07.430Z,11.98
2023-05-30T18:23:35.709Z,6.38
2023-05-30T18:26:03.553Z,8.00
2023-05-30T18:28:30.518Z,3.65
2023-05-30T18:30:57.692Z,9.57
2023-05-30T18:33:24.449Z,8.38
2023-05-30T18:36:04.046Z,8.50
2023-05-30T18:38:38.676Z,11.55
2023-05-30T18:41:05.589Z,9.63
2023-05-30T18:43:32.326Z,11.52
2023-05-30T18:46:06.445Z,8.55
2023-05-30T18:48:44.174Z,8.27
2023-05-30T18:51:12.413Z,8.13
2023-05-30T18:53:39.197Z,13.48
2023-05-30T18:56:05.987Z,14.50
2023-05-30T18:58:33.024Z,12.18
2023-05-30T19:00:59.865Z,13.77
2023-05-30T19:03:27.419Z,13.95
2023-05-30T19:05:54.320Z,9.85
2023-05-30T19:08:21.061Z,10.77
2023-05-30T19:10:47.815Z,11.07
2023-05-30T19:13:14.562Z,13.20
2023-05-30T19:15:41.451Z,8.75
2023-05-30T19:18:08.616Z,14.43
2023-05-30T19:20:35.516Z,14.80
2023-05-30T19:23:02.306Z,11.27
2023-05-30T19:25:29.274Z,10.93
2023-05-30T19:28:09.197Z,13.23
2023-05-30T19:30:36.376Z,6.03
2023-05-30T19:33:03.694Z,8.50
2023-05-30T19:35:30.675Z,10.68
2023-05-30T19:38:00.311Z,9.25
2023-05-30T19:40:31.984Z,12.60
2023-05-30T19:42:59.241Z,10.02
2023-05-30T19:45:26.804Z,7.22
2023-05-30T19:47:54.839Z,9.13
2023-05-30T19:50:21.942Z,7.25
2023-05-30T19:52:48.708Z,6.97
2023-05-30T19:55:16.932Z,4.70
2023-05-30T19:57:44.080Z,4.05
2023-05-30T20:00:12.250Z,12.73
2023-05-30T20:02:40.148Z,6.22
2023-05-30T20:05:07.532Z,6.00
2023-05-30T20:07:34.301Z,7.35
2023-05-30T20:10:01.136Z,5.78
2023-05-30T20:12:27.917Z,5.07
2023-05-30T20:14:54.649Z,7.05
2023-05-30T20:17:21.708Z,14.50
2023-05-30T20:19:52.284Z,92.82
2023-05-30T20:22:20.033Z,75.65
2023-05-30T20:24:46.898Z,53.08
2023-05-30T20:27:14.032Z,28.98
2023-05-30T20:29:40.835Z,10.45
2023-05-30T20:32:08.352Z,5.53
2023-05-30T20:34:35.171Z,3.78
2023-05-30T20:37:01.939Z,4.97
2023-05-30T20:39:28.678Z,5.40
2023-05-30T20:41:55.457Z,3.33
2023-05-30T20:44:22.402Z,9.85
2023-05-30T20:46:49.683Z,5.20
2023-05-30T20:49:16.513Z,2.40
2023-05-30T20:51:43.285Z,15.35
2023-05-30T20:54:10.066Z,5.63
2023-05-30T20:56:36.870Z,3.28
2023-05-30T20:59:03.659Z,4.97
2023-05-30T21:01:30.462Z,2.60
2023-05-30T21:03:57.343Z,3.65
2023-05-30T21:06:24.207Z,3.83
2023-05-30T21:08:51.117Z,2.30
2023-05-30T21:11:17.877Z,4.55
2023-05-30T21:13:45.487Z,4.05
2023-05-30T21:16:12.920Z,2.95
2023-05-30T21:18:39.751Z,2.40
2023-05-30T21:21:06.557Z,4.93
2023-05-30T21:23:33.308Z,2.30
2023-05-30T21:26:00.338Z,3.97
2023-05-30T21:28:27.402Z,4.47
2023-05-30T21:30:54.275Z,2.60
2023-05-30T21:33:21.303Z,2.30
2023-05-30T21:35:48.101Z,5.20
2023-05-30T21:38:14.939Z,3.42
2023-05-30T21:40:43.735Z,2.60
2023-05-30T21:43:11.712Z,2.88
2023-05-30T21:45:44.646Z,3.53
2023-05-30T21:48:12.365Z,1.53
2023-05-30T21:50:39.538Z,1.42
2023-05-30T21:53:06.305Z,2.42
2023-05-30T21:55:33.239Z,2.42
2023-05-30T21:58:00.154Z,1.48
2023-05-30T22:00:29.336Z,1.95
2023-05-30T22:02:56.549Z,3.60
2023-05-30T22:05:23.505Z,7.30
2023-05-30T22:07:50.462Z,2.85
2023-05-30T22:10:17.413Z,2.85
2023-05-30T22:12:44.150Z,1.67
2023-05-30T22:15:11.285Z,2.03
2023-05-30T22:17:41.230Z,1.25
2023-05-30T22:20:09.137Z,1.55
2023-05-30T22:22:36.038Z,1.02
2023-05-30T22:25:02.955Z,3.63
2023-05-30T22:27:29.963Z,0.98
2023-05-30T22:29:56.696Z,2.53
2023-05-30T22:32:23.708Z,2.03
2023-05-30T22:34:50.723Z,0.88
2023-05-30T22:37:17.564Z,3.83
2023-05-30T22:39:44.580Z,1.08
2023-05-30T22:42:13.722Z,2.15
2023-05-30T22:44:41.361Z,3.80
2023-05-30T22:47:08.484Z,1.10
2023-05-30T22:49:35.512Z,1.55
2023-05-30T22:52:02.342Z,1.77
2023-05-30T22:54:29.075Z,3.45
2023-05-30T22:56:56.453Z,2.78
2023-05-30T22:59:23.222Z,1.42
2023-05-30T23:01:50.090Z,2.40
2023-05-30T23:04:16.865Z,2.50
2023-05-30T23:06:43.636Z,1.15
2023-05-30T23:09:10.488Z,2.00
2023-05-30T23:11:37.486Z,1.52
2023-05-30T23:14:04.310Z,1.48
2023-05-30T23:16:31.175Z,4.82
2023-05-30T23:18:57.990Z,2.45
2023-05-30T23:21:24.787Z,0.88
2023-05-30T23:23:51.654Z,0.85
2023-05-30T23:26:18.481Z,3.60
2023-05-30T23:28:45.257Z,1.40
2023-05-30T23:31:13.129Z,0.50
2023-05-30T23:33:39.874Z,0.40
2023-05-30T23:36:06.839Z,1.13
2023-05-30T23:38:33.567Z,0.98
2023-05-30T23:41:00.521Z,0.55
2023-05-30T23:43:28.573Z,0.55
2023-05-30T23:45:55.355Z,3.50
2023-05-30T23:48:22.125Z,0.82
2023-05-30T23:50:48.892Z,1.10
2023-05-30T23:53:15.818Z,0.73
2023-05-30T23:55:42.647Z,1.65
2023-05-30T23:58:09.354Z,1.63
